sensor_id;sensor_type;location;lat;lon;timestamp;temperature;humidity
37276;DHT22;23166;51.150;21.620;2022-09-30T00:00:11;3.30;99.90
37276;DHT22;23166;51.150;21.620;2022-09-30T00:02:39;3.30;99.90
37276;DHT22;23166;51.150;21.620;2022-09-30T00:05:06;3.40;99.90
37276;DHT22;23166;51.150;21.620;2022-09-30T00:07:32;3.30;99.90
37276;DHT22;23166;51.150;21.620;2022-09-30T00:09:59;3.30;99.90
37276;DHT22;23166;51.150;21.620;2022-09-30T00:12:25;3.20;99.90
37276;DHT22;23166;51.150;21.620;2022-09-30T00:14:52;3.30;99.90
37276;DHT22;23166;51.150;21.620;2022-09-30T00:17:19;3.30;99.90
37276;DHT22;23166;51.150;21.620;2022-09-30T00:19:46;3.30;99.90
37276;DHT22;23166;51.150;21.620;2022-09-30T00:22:12;3.30;99.90
37276;DHT22;23166;51.150;21.620;2022-09-30T00:24:39;3.30;99.90
37276;DHT22;23166;51.150;21.620;2022-09-30T00:27:05;3.20;99.90
37276;DHT22;23166;51.150;21.620;2022-09-30T00:29:32;3.20;99.90
37276;DHT22;23166;51.150;21.620;2022-09-30T00:31:59;3.20;99.90
37276;DHT22;23166;51.150;21.620;2022-09-30T00:34:25;3.20;99.90
37276;DHT22;23166;51.150;21.620;2022-09-30T00:36:53;3.20;99.90
37276;DHT22;23166;51.150;21.620;2022-09-30T00:39:23;3.20;99.90
37276;DHT22;23166;51.150;21.620;2022-09-30T00:41:58;3.30;99.90
37276;DHT22;23166;51.150;21.620;2022-09-30T00:44:53;3.30;99.90
37276;DHT22;23166;51.150;21.620;2022-09-30T00:49:54;3.40;99.90
37276;DHT22;23166;51.150;21.620;2022-09-30T00:52:22;3.40;99.90
37276;DHT22;23166;51.150;21.620;2022-09-30T00:54:49;3.40;99.90
37276;DHT22;23166;51.150;21.620;2022-09-30T00:57:17;3.40;99.90
37276;DHT22;23166;51.150;21.620;2022-09-30T00:59:46;3.40;99.90
37276;DHT22;23166;51.150;21.620;2022-09-30T01:02:13;3.30;99.90
37276;DHT22;23166;51.150;21.620;2022-09-30T01:04:40;3.30;99.90
37276;DHT22;23166;51.150;21.620;2022-09-30T01:07:08;3.30;99.90
37276;DHT22;23166;51.150;21.620;2022-09-30T01:09:35;3.20;99.90
37276;DHT22;23166;51.150;21.620;2022-09-30T01:12:11;3.20;99.90
37276;DHT22;23166;51.150;21.620;2022-09-30T01:14:38;3.10;99.90
37276;DHT22;23166;51.150;21.620;2022-09-30T01:25:12;3.10;99.90
37276;DHT22;23166;51.150;21.620;2022-09-30T01:38:27;3.20;99.90
37276;DHT22;23166;51.150;21.620;2022-09-30T01:43:53;3.20;99.90
37276;DHT22;23166;51.150;21.620;2022-09-30T01:49:17;3.10;99.90
37276;DHT22;23166;51.150;21.620;2022-09-30T01:51:51;3.10;99.90
37276;DHT22;23166;51.150;21.620;2022-09-30T01:54:21;3.10;99.90
37276;DHT22;23166;51.150;21.620;2022-09-30T01:56:55;3.00;99.90
37276;DHT22;23166;51.150;21.620;2022-09-30T01:59:28;3.00;99.90
37276;DHT22;23166;51.150;21.620;2022-09-30T02:02:09;3.00;99.90
37276;DHT22;23166;51.150;21.620;2022-09-30T02:04:40;3.00;99.90
37276;DHT22;23166;51.150;21.620;2022-09-30T02:07:09;3.00;99.90
37276;DHT22;23166;51.150;21.620;2022-09-30T02:09:52;3.00;99.90
37276;DHT22;23166;51.150;21.620;2022-09-30T02:12:20;2.90;99.90
37276;DHT22;23166;51.150;21.620;2022-09-30T02:14:56;3.00;99.90
37276;DHT22;23166;51.150;21.620;2022-09-30T02:18:02;3.00;99.90
37276;DHT22;23166;51.150;21.620;2022-09-30T02:20:12;3.00;99.90
37276;DHT22;23166;51.150;21.620;2022-09-30T02:22:42;3.00;99.90
37276;DHT22;23166;51.150;21.620;2022-09-30T02:25:14;3.00;99.90
37276;DHT22;23166;51.150;21.620;2022-09-30T02:27:44;3.00;99.90
37276;DHT22;23166;51.150;21.620;2022-09-30T02:30:12;3.00;99.90
37276;DHT22;23166;51.150;21.620;2022-09-30T02:32:59;3.00;99.90
37276;DHT22;23166;51.150;21.620;2022-09-30T02:35:33;3.00;99.90
37276;DHT22;23166;51.150;21.620;2022-09-30T02:38:01;3.00;99.90
37276;DHT22;23166;51.150;21.620;2022-09-30T02:40:32;3.00;99.90
37276;DHT22;23166;51.150;21.620;2022-09-30T02:43:01;3.00;99.90
37276;DHT22;23166;51.150;21.620;2022-09-30T02:45:30;3.10;99.90
37276;DHT22;23166;51.150;21.620;2022-09-30T02:50:53;3.20;99.90
37276;DHT22;23166;51.150;21.620;2022-09-30T02:53:24;3.20;99.90
37276;DHT22;23166;51.150;21.620;2022-09-30T02:58:55;3.20;99.90
37276;DHT22;23166;51.150;21.620;2022-09-30T03:01:23;3.20;99.90
37276;DHT22;23166;51.150;21.620;2022-09-30T03:03:52;3.20;99.90
37276;DHT22;23166;51.150;21.620;2022-09-30T03:06:20;3.10;99.90
37276;DHT22;23166;51.150;21.620;2022-09-30T03:08:47;3.10;99.90
37276;DHT22;23166;51.150;21.620;2022-09-30T03:11:18;3.00;99.90
37276;DHT22;23166;51.150;21.620;2022-09-30T03:30:47;3.00;99.90
37276;DHT22;23166;51.150;21.620;2022-09-30T03:39:23;3.10;99.90
37276;DHT22;23166;51.150;21.620;2022-09-30T03:41:59;3.20;99.90
37276;DHT22;23166;51.150;21.620;2022-09-30T03:44:40;3.20;99.90
37276;DHT22;23166;51.150;21.620;2022-09-30T03:47:09;3.20;99.90
37276;DHT22;23166;51.150;21.620;2022-09-30T03:49:48;3.20;99.90
37276;DHT22;23166;51.150;21.620;2022-09-30T03:52:15;3.20;99.90
37276;DHT22;23166;51.150;21.620;2022-09-30T03:54:53;3.20;99.90
37276;DHT22;23166;51.150;21.620;2022-09-30T03:57:15;3.30;99.90
37276;DHT22;23166;51.150;21.620;2022-09-30T03:59:42;3.30;99.90
37276;DHT22;23166;51.150;21.620;2022-09-30T04:02:09;3.40;99.90
37276;DHT22;23166;51.150;21.620;2022-09-30T04:04:41;3.50;99.90
37276;DHT22;23166;51.150;21.620;2022-09-30T04:07:06;3.50;99.90
37276;DHT22;23166;51.150;21.620;2022-09-30T04:09:33;3.60;99.90
37276;DHT22;23166;51.150;21.620;2022-09-30T04:12:00;3.70;99.90
37276;DHT22;23166;51.150;21.620;2022-09-30T04:14:26;3.70;99.90
37276;DHT22;23166;51.150;21.620;2022-09-30T04:16:52;3.70;99.90
37276;DHT22;23166;51.150;21.620;2022-09-30T04:19:19;3.80;99.90
37276;DHT22;23166;51.150;21.620;2022-09-30T04:21:45;3.80;99.90
37276;DHT22;23166;51.150;21.620;2022-09-30T04:24:12;3.70;99.90
37276;DHT22;23166;51.150;21.620;2022-09-30T04:26:38;3.80;99.90
37276;DHT22;23166;51.150;21.620;2022-09-30T04:29:05;3.80;99.90
37276;DHT22;23166;51.150;21.620;2022-09-30T04:31:31;3.80;99.90
37276;DHT22;23166;51.150;21.620;2022-09-30T04:33:57;3.80;99.90
37276;DHT22;23166;51.150;21.620;2022-09-30T04:36:24;3.80;99.90
37276;DHT22;23166;51.150;21.620;2022-09-30T04:38:50;3.80;99.90
37276;DHT22;23166;51.150;21.620;2022-09-30T04:41:18;3.80;99.90
37276;DHT22;23166;51.150;21.620;2022-09-30T04:43:46;3.80;99.90
37276;DHT22;23166;51.150;21.620;2022-09-30T04:46:15;3.80;99.90
37276;DHT22;23166;51.150;21.620;2022-09-30T04:48:41;3.90;99.90
37276;DHT22;23166;51.150;21.620;2022-09-30T04:51:11;4.00;99.90
37276;DHT22;23166;51.150;21.620;2022-09-30T04:53:38;4.10;99.90
37276;DHT22;23166;51.150;21.620;2022-09-30T04:56:05;4.20;99.90
37276;DHT22;23166;51.150;21.620;2022-09-30T04:58:33;4.30;99.90
37276;DHT22;23166;51.150;21.620;2022-09-30T05:01:02;4.40;99.90
37276;DHT22;23166;51.150;21.620;2022-09-30T05:03:29;4.60;99.90
37276;DHT22;23166;51.150;21.620;2022-09-30T05:05:56;4.80;99.90
37276;DHT22;23166;51.150;21.620;2022-09-30T05:08:22;5.00;99.90
37276;DHT22;23166;51.150;21.620;2022-09-30T05:10:57;5.20;99.90
37276;DHT22;23166;51.150;21.620;2022-09-30T05:13:25;5.40;99.90
37276;DHT22;23166;51.150;21.620;2022-09-30T05:15:51;5.50;99.90
37276;DHT22;23166;51.150;21.620;2022-09-30T05:18:19;5.70;99.90
37276;DHT22;23166;51.150;21.620;2022-09-30T05:20:48;5.90;99.90
37276;DHT22;23166;51.150;21.620;2022-09-30T05:23:14;6.00;99.90
37276;DHT22;23166;51.150;21.620;2022-09-30T05:25:41;6.10;99.90
37276;DHT22;23166;51.150;21.620;2022-09-30T05:28:08;6.20;99.90
37276;DHT22;23166;51.150;21.620;2022-09-30T05:30:34;6.30;99.90
37276;DHT22;23166;51.150;21.620;2022-09-30T05:33:01;6.30;99.90
37276;DHT22;23166;51.150;21.620;2022-09-30T05:35:27;6.40;99.90
37276;DHT22;23166;51.150;21.620;2022-09-30T05:37:53;6.40;99.90
37276;DHT22;23166;51.150;21.620;2022-09-30T05:40:20;6.40;99.90
37276;DHT22;23166;51.150;21.620;2022-09-30T05:42:46;6.50;99.90
37276;DHT22;23166;51.150;21.620;2022-09-30T05:45:13;6.50;99.90
37276;DHT22;23166;51.150;21.620;2022-09-30T05:47:39;6.50;99.90
37276;DHT22;23166;51.150;21.620;2022-09-30T05:50:06;6.50;99.90
37276;DHT22;23166;51.150;21.620;2022-09-30T05:52:32;6.60;99.90
37276;DHT22;23166;51.150;21.620;2022-09-30T05:54:58;6.70;99.90
37276;DHT22;23166;51.150;21.620;2022-09-30T05:57:27;6.60;99.90
37276;DHT22;23166;51.150;21.620;2022-09-30T05:59:55;6.70;99.90
37276;DHT22;23166;51.150;21.620;2022-09-30T06:02:23;6.70;99.90
37276;DHT22;23166;51.150;21.620;2022-09-30T06:04:49;6.80;99.90
37276;DHT22;23166;51.150;21.620;2022-09-30T06:07:16;6.80;99.90
37276;DHT22;23166;51.150;21.620;2022-09-30T06:09:42;6.80;99.90
37276;DHT22;23166;51.150;21.620;2022-09-30T06:12:09;6.90;99.90
37276;DHT22;23166;51.150;21.620;2022-09-30T06:14:36;7.00;99.90
37276;DHT22;23166;51.150;21.620;2022-09-30T06:17:02;7.00;99.90
37276;DHT22;23166;51.150;21.620;2022-09-30T06:19:31;7.10;99.90
37276;DHT22;23166;51.150;21.620;2022-09-30T06:21:57;7.10;99.90
37276;DHT22;23166;51.150;21.620;2022-09-30T06:24:24;7.20;99.90
37276;DHT22;23166;51.150;21.620;2022-09-30T06:26:51;7.20;99.90
37276;DHT22;23166;51.150;21.620;2022-09-30T06:29:17;7.30;99.90
37276;DHT22;23166;51.150;21.620;2022-09-30T06:31:44;7.30;99.90
37276;DHT22;23166;51.150;21.620;2022-09-30T06:34:10;7.40;99.90
37276;DHT22;23166;51.150;21.620;2022-09-30T06:36:37;7.50;99.90
37276;DHT22;23166;51.150;21.620;2022-09-30T06:39:03;7.50;99.90
37276;DHT22;23166;51.150;21.620;2022-09-30T06:41:30;7.60;99.90
37276;DHT22;23166;51.150;21.620;2022-09-30T06:43:56;7.70;99.90
37276;DHT22;23166;51.150;21.620;2022-09-30T06:46:23;7.80;99.90
37276;DHT22;23166;51.150;21.620;2022-09-30T06:48:53;7.90;99.90
37276;DHT22;23166;51.150;21.620;2022-09-30T06:51:20;8.10;99.90
37276;DHT22;23166;51.150;21.620;2022-09-30T06:53:50;8.30;99.90
37276;DHT22;23166;51.150;21.620;2022-09-30T06:56:18;8.40;99.90
37276;DHT22;23166;51.150;21.620;2022-09-30T06:58:45;8.60;99.90
37276;DHT22;23166;51.150;21.620;2022-09-30T07:01:12;8.70;99.90
37276;DHT22;23166;51.150;21.620;2022-09-30T07:03:41;8.80;99.90
37276;DHT22;23166;51.150;21.620;2022-09-30T07:06:10;8.90;99.90
37276;DHT22;23166;51.150;21.620;2022-09-30T07:08:37;8.90;99.90
37276;DHT22;23166;51.150;21.620;2022-09-30T07:11:10;9.00;99.90
37276;DHT22;23166;51.150;21.620;2022-09-30T07:13:35;9.20;99.90
37276;DHT22;23166;51.150;21.620;2022-09-30T07:16:02;9.30;99.90
37276;DHT22;23166;51.150;21.620;2022-09-30T07:18:28;9.50;99.90
37276;DHT22;23166;51.150;21.620;2022-09-30T07:20:55;9.60;99.90
37276;DHT22;23166;51.150;21.620;2022-09-30T07:23:22;9.80;99.90
37276;DHT22;23166;51.150;21.620;2022-09-30T07:25:56;9.90;99.90
37276;DHT22;23166;51.150;21.620;2022-09-30T07:28:30;9.90;99.90
37276;DHT22;23166;51.150;21.620;2022-09-30T07:30:54;9.90;99.90
37276;DHT22;23166;51.150;21.620;2022-09-30T07:33:21;9.90;99.90
37276;DHT22;23166;51.150;21.620;2022-09-30T07:35:53;9.90;99.90
37276;DHT22;23166;51.150;21.620;2022-09-30T07:38:23;10.00;99.90
37276;DHT22;23166;51.150;21.620;2022-09-30T07:40:58;10.00;99.90
37276;DHT22;23166;51.150;21.620;2022-09-30T07:43:27;10.00;99.90
37276;DHT22;23166;51.150;21.620;2022-09-30T07:46:10;10.10;99.90
37276;DHT22;23166;51.150;21.620;2022-09-30T07:48:39;10.00;99.90
37276;DHT22;23166;51.150;21.620;2022-09-30T07:53:45;10.10;99.90
37276;DHT22;23166;51.150;21.620;2022-09-30T07:56:12;10.20;99.90
37276;DHT22;23166;51.150;21.620;2022-09-30T07:58:39;10.20;99.90
37276;DHT22;23166;51.150;21.620;2022-09-30T08:01:06;10.30;99.90
37276;DHT22;23166;51.150;21.620;2022-09-30T08:03:38;10.40;99.90
37276;DHT22;23166;51.150;21.620;2022-09-30T08:06:08;10.50;99.90
37276;DHT22;23166;51.150;21.620;2022-09-30T08:08:35;10.60;99.90
37276;DHT22;23166;51.150;21.620;2022-09-30T08:11:02;10.60;99.90
37276;DHT22;23166;51.150;21.620;2022-09-30T08:13:30;10.60;99.90
37276;DHT22;23166;51.150;21.620;2022-09-30T08:15:57;10.70;99.90
37276;DHT22;23166;51.150;21.620;2022-09-30T08:18:23;10.70;99.90
37276;DHT22;23166;51.150;21.620;2022-09-30T08:20:49;10.90;99.90
37276;DHT22;23166;51.150;21.620;2022-09-30T08:23:16;11.00;99.90
37276;DHT22;23166;51.150;21.620;2022-09-30T08:25:42;11.10;99.90
37276;DHT22;23166;51.150;21.620;2022-09-30T08:28:08;11.20;99.90
37276;DHT22;23166;51.150;21.620;2022-09-30T08:30:36;11.30;99.90
37276;DHT22;23166;51.150;21.620;2022-09-30T08:33:03;11.40;99.90
37276;DHT22;23166;51.150;21.620;2022-09-30T08:35:30;11.50;99.90
37276;DHT22;23166;51.150;21.620;2022-09-30T08:37:56;11.70;99.90
37276;DHT22;23166;51.150;21.620;2022-09-30T08:40:29;11.80;99.90
37276;DHT22;23166;51.150;21.620;2022-09-30T08:43:16;12.00;99.90
37276;DHT22;23166;51.150;21.620;2022-09-30T08:45:57;12.10;99.90
37276;DHT22;23166;51.150;21.620;2022-09-30T08:51:16;12.20;99.90
37276;DHT22;23166;51.150;21.620;2022-09-30T08:53:44;12.20;99.90
37276;DHT22;23166;51.150;21.620;2022-09-30T08:56:46;12.20;99.90
37276;DHT22;23166;51.150;21.620;2022-09-30T08:58:49;12.10;99.90
37276;DHT22;23166;51.150;21.620;2022-09-30T09:01:29;12.10;99.90
37276;DHT22;23166;51.150;21.620;2022-09-30T09:03:57;12.20;99.90
37276;DHT22;23166;51.150;21.620;2022-09-30T09:06:34;12.20;99.90
37276;DHT22;23166;51.150;21.620;2022-09-30T09:22:20;12.40;96.80
37276;DHT22;23166;51.150;21.620;2022-09-30T09:24:49;12.30;98.10
37276;DHT22;23166;51.150;21.620;2022-09-30T09:27:44;12.20;98.50
37276;DHT22;23166;51.150;21.620;2022-09-30T09:30:13;12.10;99.90
37276;DHT22;23166;51.150;21.620;2022-09-30T09:32:39;11.90;99.90
37276;DHT22;23166;51.150;21.620;2022-09-30T09:35:15;11.80;99.90
37276;DHT22;23166;51.150;21.620;2022-09-30T09:43:57;11.40;99.90
37276;DHT22;23166;51.150;21.620;2022-09-30T09:49:26;11.30;99.90
37276;DHT22;23166;51.150;21.620;2022-09-30T09:54:43;11.30;99.90
37276;DHT22;23166;51.150;21.620;2022-09-30T09:57:08;11.30;99.90
37276;DHT22;23166;51.150;21.620;2022-09-30T09:59:36;11.40;99.90
37276;DHT22;23166;51.150;21.620;2022-09-30T10:02:49;11.40;99.90
37276;DHT22;23166;51.150;21.620;2022-09-30T10:04:35;11.40;99.90
37276;DHT22;23166;51.150;21.620;2022-09-30T10:07:13;11.40;99.90
37276;DHT22;23166;51.150;21.620;2022-09-30T10:09:41;11.40;99.90
37276;DHT22;23166;51.150;21.620;2022-09-30T10:14:51;11.30;99.90
37276;DHT22;23166;51.150;21.620;2022-09-30T10:17:25;11.30;99.90
37276;DHT22;23166;51.150;21.620;2022-09-30T10:19:53;11.30;99.90
37276;DHT22;23166;51.150;21.620;2022-09-30T10:22:26;11.30;99.90
37276;DHT22;23166;51.150;21.620;2022-09-30T10:24:49;11.30;99.90
37276;DHT22;23166;51.150;21.620;2022-09-30T10:27:30;11.20;99.90
37276;DHT22;23166;51.150;21.620;2022-09-30T10:29:57;11.20;99.90
37276;DHT22;23166;51.150;21.620;2022-09-30T10:32:24;11.20;99.90
37276;DHT22;23166;51.150;21.620;2022-09-30T10:35:04;11.10;99.90
37276;DHT22;23166;51.150;21.620;2022-09-30T10:37:31;11.10;99.90
37276;DHT22;23166;51.150;21.620;2022-09-30T10:40:00;11.00;99.90
37276;DHT22;23166;51.150;21.620;2022-09-30T10:42:32;11.00;99.90
37276;DHT22;23166;51.150;21.620;2022-09-30T10:45:05;10.90;99.90
37276;DHT22;23166;51.150;21.620;2022-09-30T10:47:34;10.90;99.90
37276;DHT22;23166;51.150;21.620;2022-09-30T10:50:07;10.80;99.90
37276;DHT22;23166;51.150;21.620;2022-09-30T10:52:37;10.80;99.90
37276;DHT22;23166;51.150;21.620;2022-09-30T10:55:07;10.80;99.90
37276;DHT22;23166;51.150;21.620;2022-09-30T10:57:35;10.90;99.90
37276;DHT22;23166;51.150;21.620;2022-09-30T11:00:12;10.90;99.90
37276;DHT22;23166;51.150;21.620;2022-09-30T11:02:45;10.90;99.90
37276;DHT22;23166;51.150;21.620;2022-09-30T11:10:45;10.80;99.90
37276;DHT22;23166;51.150;21.620;2022-09-30T11:21:29;10.60;99.90
37276;DHT22;23166;51.150;21.620;2022-09-30T11:27:11;10.50;99.90
37276;DHT22;23166;51.150;21.620;2022-09-30T11:32:44;10.40;99.90
37276;DHT22;23166;51.150;21.620;2022-09-30T11:43:30;10.50;99.90
37276;DHT22;23166;51.150;21.620;2022-09-30T11:57:20;10.30;99.90
37276;DHT22;23166;51.150;21.620;2022-09-30T12:00:03;10.30;99.90
37276;DHT22;23166;51.150;21.620;2022-09-30T12:05:28;10.30;99.90
37276;DHT22;23166;51.150;21.620;2022-09-30T12:10:57;10.40;99.90
37276;DHT22;23166;51.150;21.620;2022-09-30T12:13:29;10.40;99.90
37276;DHT22;23166;51.150;21.620;2022-09-30T12:16:00;10.40;99.90
37276;DHT22;23166;51.150;21.620;2022-09-30T12:18:41;10.40;99.90
37276;DHT22;23166;51.150;21.620;2022-09-30T12:21:27;10.40;99.90
37276;DHT22;23166;51.150;21.620;2022-09-30T12:23:58;10.40;99.90
37276;DHT22;23166;51.150;21.620;2022-09-30T12:26:24;10.40;99.90
37276;DHT22;23166;51.150;21.620;2022-09-30T12:29:11;10.40;99.90
37276;DHT22;23166;51.150;21.620;2022-09-30T12:48:54;10.40;99.90
37276;DHT22;23166;51.150;21.620;2022-09-30T12:51:28;10.50;99.90
37276;DHT22;23166;51.150;21.620;2022-09-30T12:54:03;10.50;99.90
37276;DHT22;23166;51.150;21.620;2022-09-30T12:56:27;10.50;99.90
37276;DHT22;23166;51.150;21.620;2022-09-30T12:58:54;10.50;99.90
37276;DHT22;23166;51.150;21.620;2022-09-30T13:01:25;10.60;99.90
37276;DHT22;23166;51.150;21.620;2022-09-30T13:09:19;10.60;99.90
37276;DHT22;23166;51.150;21.620;2022-09-30T13:19:44;10.60;99.90
37276;DHT22;23166;51.150;21.620;2022-09-30T13:35:50;10.60;99.90
37276;DHT22;23166;51.150;21.620;2022-09-30T13:38:18;10.60;99.90
37276;DHT22;23166;51.150;21.620;2022-09-30T13:40:54;10.60;99.90
37276;DHT22;23166;51.150;21.620;2022-09-30T13:49:15;10.50;99.90
37276;DHT22;23166;51.150;21.620;2022-09-30T13:51:41;10.50;99.90
37276;DHT22;23166;51.150;21.620;2022-09-30T13:54:31;10.50;99.90
37276;DHT22;23166;51.150;21.620;2022-09-30T13:57:02;10.50;99.90
37276;DHT22;23166;51.150;21.620;2022-09-30T14:02:41;10.40;99.90
37276;DHT22;23166;51.150;21.620;2022-09-30T14:11:26;10.40;99.90
37276;DHT22;23166;51.150;21.620;2022-09-30T14:19:53;10.40;99.90
37276;DHT22;23166;51.150;21.620;2022-09-30T14:22:19;10.40;99.90
37276;DHT22;23166;51.150;21.620;2022-09-30T14:24:49;10.40;99.90
37276;DHT22;23166;51.150;21.620;2022-09-30T14:38:42;10.40;99.90
37276;DHT22;23166;51.150;21.620;2022-09-30T14:41:13;10.40;99.90
37276;DHT22;23166;51.150;21.620;2022-09-30T14:43:42;10.40;99.90
37276;DHT22;23166;51.150;21.620;2022-09-30T14:46:32;10.40;99.90
37276;DHT22;23166;51.150;21.620;2022-09-30T14:49:01;10.40;99.90
37276;DHT22;23166;51.150;21.620;2022-09-30T14:51:34;10.40;99.90
37276;DHT22;23166;51.150;21.620;2022-09-30T14:54:03;10.40;99.90
37276;DHT22;23166;51.150;21.620;2022-09-30T14:56:33;10.40;99.90
37276;DHT22;23166;51.150;21.620;2022-09-30T15:01:57;10.30;99.90
37276;DHT22;23166;51.150;21.620;2022-09-30T15:04:29;10.40;99.90
37276;DHT22;23166;51.150;21.620;2022-09-30T15:06:54;10.40;99.90
37276;DHT22;23166;51.150;21.620;2022-09-30T15:09:36;10.30;99.90
37276;DHT22;23166;51.150;21.620;2022-09-30T15:12:14;10.30;99.90
37276;DHT22;23166;51.150;21.620;2022-09-30T15:20:43;10.30;99.90
37276;DHT22;23166;51.150;21.620;2022-09-30T15:22:45;10.40;99.90
37276;DHT22;23166;51.150;21.620;2022-09-30T15:25:11;10.40;99.90
37276;DHT22;23166;51.150;21.620;2022-09-30T15:27:38;10.30;99.90
37276;DHT22;23166;51.150;21.620;2022-09-30T15:30:22;10.30;99.90
37276;DHT22;23166;51.150;21.620;2022-09-30T15:32:55;10.30;99.90
37276;DHT22;23166;51.150;21.620;2022-09-30T15:35:19;10.30;99.90
37276;DHT22;23166;51.150;21.620;2022-09-30T15:37:47;10.30;99.90
37276;DHT22;23166;51.150;21.620;2022-09-30T15:40:16;10.30;99.90
37276;DHT22;23166;51.150;21.620;2022-09-30T15:43:07;10.30;99.90
37276;DHT22;23166;51.150;21.620;2022-09-30T15:45:35;10.30;99.90
37276;DHT22;23166;51.150;21.620;2022-09-30T15:48:08;10.30;99.90
37276;DHT22;23166;51.150;21.620;2022-09-30T15:50:37;10.20;99.90
37276;DHT22;23166;51.150;21.620;2022-09-30T15:55:44;10.30;99.90
37276;DHT22;23166;51.150;21.620;2022-09-30T16:01:13;10.20;99.90
37276;DHT22;23166;51.150;21.620;2022-09-30T16:06:31;10.30;99.90
37276;DHT22;23166;51.150;21.620;2022-09-30T16:09:00;10.20;99.90
37276;DHT22;23166;51.150;21.620;2022-09-30T16:11:33;10.20;99.90
37276;DHT22;23166;51.150;21.620;2022-09-30T16:14:03;10.20;99.90
37276;DHT22;23166;51.150;21.620;2022-09-30T16:16:32;10.20;99.90
37276;DHT22;23166;51.150;21.620;2022-09-30T16:19:00;10.20;99.90
37276;DHT22;23166;51.150;21.620;2022-09-30T16:21:35;10.20;99.90
37276;DHT22;23166;51.150;21.620;2022-09-30T16:23:57;10.20;99.90
37276;DHT22;23166;51.150;21.620;2022-09-30T16:26:28;10.20;99.90
37276;DHT22;23166;51.150;21.620;2022-09-30T16:28:55;10.20;99.90
37276;DHT22;23166;51.150;21.620;2022-09-30T16:31:24;10.20;99.90
37276;DHT22;23166;51.150;21.620;2022-09-30T16:33:50;10.20;99.90
37276;DHT22;23166;51.150;21.620;2022-09-30T16:36:16;10.20;99.90
37276;DHT22;23166;51.150;21.620;2022-09-30T16:38:43;10.20;99.90
37276;DHT22;23166;51.150;21.620;2022-09-30T16:41:11;10.20;99.90
37276;DHT22;23166;51.150;21.620;2022-09-30T16:43:38;10.20;99.90
37276;DHT22;23166;51.150;21.620;2022-09-30T16:46:05;10.20;99.90
37276;DHT22;23166;51.150;21.620;2022-09-30T16:48:32;10.20;99.90
37276;DHT22;23166;51.150;21.620;2022-09-30T16:51:02;10.20;99.90
37276;DHT22;23166;51.150;21.620;2022-09-30T16:53:29;10.20;99.90
37276;DHT22;23166;51.150;21.620;2022-09-30T16:55:56;10.20;99.90
37276;DHT22;23166;51.150;21.620;2022-09-30T16:58:23;10.20;99.90
37276;DHT22;23166;51.150;21.620;2022-09-30T17:00:49;10.20;99.90
37276;DHT22;23166;51.150;21.620;2022-09-30T17:03:17;10.20;99.90
37276;DHT22;23166;51.150;21.620;2022-09-30T17:05:46;10.20;99.90
37276;DHT22;23166;51.150;21.620;2022-09-30T17:08:19;10.20;99.90
37276;DHT22;23166;51.150;21.620;2022-09-30T17:10:47;10.20;99.90
37276;DHT22;23166;51.150;21.620;2022-09-30T17:13:17;10.20;99.90
37276;DHT22;23166;51.150;21.620;2022-09-30T17:15:50;10.20;99.90
37276;DHT22;23166;51.150;21.620;2022-09-30T17:18:17;10.20;99.90
37276;DHT22;23166;51.150;21.620;2022-09-30T17:20:45;10.20;99.90
37276;DHT22;23166;51.150;21.620;2022-09-30T17:23:13;10.20;99.90
37276;DHT22;23166;51.150;21.620;2022-09-30T17:25:41;10.20;99.90
37276;DHT22;23166;51.150;21.620;2022-09-30T17:28:10;10.20;99.90
37276;DHT22;23166;51.150;21.620;2022-09-30T17:30:37;10.20;99.90
37276;DHT22;23166;51.150;21.620;2022-09-30T17:33:07;10.20;99.90
37276;DHT22;23166;51.150;21.620;2022-09-30T17:35:36;10.20;99.90
37276;DHT22;23166;51.150;21.620;2022-09-30T17:38:08;10.20;99.90
37276;DHT22;23166;51.150;21.620;2022-09-30T17:40:35;10.20;99.90
37276;DHT22;23166;51.150;21.620;2022-09-30T17:43:20;10.20;99.90
37276;DHT22;23166;51.150;21.620;2022-09-30T17:45:47;10.20;99.90
37276;DHT22;23166;51.150;21.620;2022-09-30T17:48:16;10.20;99.90
37276;DHT22;23166;51.150;21.620;2022-09-30T17:50:46;10.20;99.90
37276;DHT22;23166;51.150;21.620;2022-09-30T17:53:14;10.20;99.90
37276;DHT22;23166;51.150;21.620;2022-09-30T17:55:46;10.20;99.90
37276;DHT22;23166;51.150;21.620;2022-09-30T17:58:14;10.20;99.90
37276;DHT22;23166;51.150;21.620;2022-09-30T18:00:42;10.20;99.90
37276;DHT22;23166;51.150;21.620;2022-09-30T18:03:08;10.10;99.90
37276;DHT22;23166;51.150;21.620;2022-09-30T18:05:36;10.10;99.90
37276;DHT22;23166;51.150;21.620;2022-09-30T18:08:02;10.10;99.90
37276;DHT22;23166;51.150;21.620;2022-09-30T18:10:28;10.10;99.90
37276;DHT22;23166;51.150;21.620;2022-09-30T18:12:55;10.20;99.90
37276;DHT22;23166;51.150;21.620;2022-09-30T18:15:22;10.20;99.90
37276;DHT22;23166;51.150;21.620;2022-09-30T18:17:48;10.10;99.90
37276;DHT22;23166;51.150;21.620;2022-09-30T18:20:15;10.10;99.90
37276;DHT22;23166;51.150;21.620;2022-09-30T18:22:41;10.10;99.90
37276;DHT22;23166;51.150;21.620;2022-09-30T18:25:09;10.10;99.90
37276;DHT22;23166;51.150;21.620;2022-09-30T18:27:57;10.10;99.90
37276;DHT22;23166;51.150;21.620;2022-09-30T18:30:24;10.00;99.90
37276;DHT22;23166;51.150;21.620;2022-09-30T18:32:52;10.10;99.90
37276;DHT22;23166;51.150;21.620;2022-09-30T18:35:21;10.00;99.90
37276;DHT22;23166;51.150;21.620;2022-09-30T18:37:48;10.00;99.90
37276;DHT22;23166;51.150;21.620;2022-09-30T18:40:19;10.00;99.90
37276;DHT22;23166;51.150;21.620;2022-09-30T18:42:43;10.00;99.90
37276;DHT22;23166;51.150;21.620;2022-09-30T18:45:11;10.00;99.90
37276;DHT22;23166;51.150;21.620;2022-09-30T18:47:39;10.00;99.90
37276;DHT22;23166;51.150;21.620;2022-09-30T18:50:08;10.00;99.90
37276;DHT22;23166;51.150;21.620;2022-09-30T18:52:35;10.00;99.90
37276;DHT22;23166;51.150;21.620;2022-09-30T18:55:02;10.00;99.90
37276;DHT22;23166;51.150;21.620;2022-09-30T18:57:29;10.00;99.90
37276;DHT22;23166;51.150;21.620;2022-09-30T18:59:57;10.00;99.90
37276;DHT22;23166;51.150;21.620;2022-09-30T19:02:24;10.00;99.90
37276;DHT22;23166;51.150;21.620;2022-09-30T19:04:52;10.00;99.90
37276;DHT22;23166;51.150;21.620;2022-09-30T19:07:19;10.00;99.90
37276;DHT22;23166;51.150;21.620;2022-09-30T19:09:46;10.00;99.90
37276;DHT22;23166;51.150;21.620;2022-09-30T19:12:12;10.00;99.90
37276;DHT22;23166;51.150;21.620;2022-09-30T19:14:43;10.00;99.90
37276;DHT22;23166;51.150;21.620;2022-09-30T19:17:09;10.00;99.90
37276;DHT22;23166;51.150;21.620;2022-09-30T19:19:36;10.00;99.90
37276;DHT22;23166;51.150;21.620;2022-09-30T19:22:11;10.00;99.90
37276;DHT22;23166;51.150;21.620;2022-09-30T19:24:39;9.90;99.90